sensor_id;sensor_type;location;lat;lon;timestamp;pressure;altitude;pressure_sealevel;temperature;humidity
54978;BME280;40873;47.522;19.106;2023-09-12T00:02:14;100122.78;;;18.92;100.00
54978;BME280;40873;47.522;19.106;2023-09-12T00:04:41;100122.06;;;18.89;100.00
54978;BME280;40873;47.522;19.106;2023-09-12T00:07:08;100128.41;;;18.88;100.00
54978;BME280;40873;47.522;19.106;2023-09-12T00:09:36;100125.91;;;18.87;100.00
54978;BME280;40873;47.522;19.106;2023-09-12T00:12:03;100123.66;;;18.82;100.00
54978;BME280;40873;47.522;19.106;2023-09-12T00:14:30;100124.97;;;18.78;100.00
54978;BME280;40873;47.522;19.106;2023-09-12T00:16:57;100123.59;;;18.74;100.00
54978;BME280;40873;47.522;19.106;2023-09-12T00:19:24;100122.44;;;18.77;100.00
54978;BME280;40873;47.522;19.106;2023-09-12T00:21:51;100127.78;;;18.77;100.00
54978;BME280;40873;47.522;19.106;2023-09-12T00:24:19;100126.25;;;18.74;100.00
54978;BME280;40873;47.522;19.106;2023-09-12T00:26:46;100121.59;;;18.76;100.00
54978;BME280;40873;47.522;19.106;2023-09-12T00:29:16;100121.06;;;18.63;100.00
54978;BME280;40873;47.522;19.106;2023-09-12T00:31:43;100121.41;;;18.60;100.00
54978;BME280;40873;47.522;19.106;2023-09-12T00:34:11;100124.97;;;18.51;100.00
54978;BME280;40873;47.522;19.106;2023-09-12T00:36:42;100127.09;;;18.47;100.00
54978;BME280;40873;47.522;19.106;2023-09-12T00:39:09;100122.06;;;18.44;100.00
54978;BME280;40873;47.522;19.106;2023-09-12T00:41:36;100133.84;;;18.42;100.00
54978;BME280;40873;47.522;19.106;2023-09-12T00:44:03;100130.66;;;18.38;100.00
54978;BME280;40873;47.522;19.106;2023-09-12T00:46:31;100125.16;;;18.40;100.00
54978;BME280;40873;47.522;19.106;2023-09-12T00:48:59;100121.41;;;18.32;100.00
54978;BME280;40873;47.522;19.106;2023-09-12T00:51:27;100126.59;;;18.34;100.00
54978;BME280;40873;47.522;19.106;2023-09-12T00:53:55;100124.91;;;18.33;100.00
54978;BME280;40873;47.522;19.106;2023-09-12T00:56:22;100116.91;;;18.33;100.00
54978;BME280;40873;47.522;19.106;2023-09-12T00:58:49;100118.19;;;18.29;100.00
54978;BME280;40873;47.522;19.106;2023-09-12T01:01:19;100121.97;;;18.26;100.00
54978;BME280;40873;47.522;19.106;2023-09-12T01:03:47;100127.03;;;18.29;100.00
54978;BME280;40873;47.522;19.106;2023-09-12T01:06:15;100124.22;;;18.31;100.00
54978;BME280;40873;47.522;19.106;2023-09-12T01:08:46;100115.13;;;18.24;100.00
54978;BME280;40873;47.522;19.106;2023-09-12T01:11:14;100126.53;;;18.16;100.00
54978;BME280;40873;47.522;19.106;2023-09-12T01:13:41;100115.69;;;18.18;100.00
54978;BME280;40873;47.522;19.106;2023-09-12T01:16:08;100119.22;;;18.18;100.00
54978;BME280;40873;47.522;19.106;2023-09-12T01:18:36;100128.91;;;18.19;100.00
54978;BME280;40873;47.522;19.106;2023-09-12T01:23:44;100124.00;;;18.15;100.00
54978;BME280;40873;47.522;19.106;2023-09-12T01:26:29;100127.00;;;18.02;100.00
54978;BME280;40873;47.522;19.106;2023-09-12T01:28:57;100127.13;;;18.00;100.00
54978;BME280;40873;47.522;19.106;2023-09-12T01:31:25;100130.78;;;17.99;100.00
54978;BME280;40873;47.522;19.106;2023-09-12T01:33:56;100120.16;;;17.90;100.00
54978;BME280;40873;47.522;19.106;2023-09-12T01:36:24;100122.53;;;17.93;100.00
54978;BME280;40873;47.522;19.106;2023-09-12T01:38:51;100126.88;;;17.94;100.00
54978;BME280;40873;47.522;19.106;2023-09-12T01:41:18;100122.69;;;17.91;100.00
54978;BME280;40873;47.522;19.106;2023-09-12T01:43:48;100116.50;;;17.91;100.00
54978;BME280;40873;47.522;19.106;2023-09-12T01:46:17;100116.06;;;17.95;100.00
54978;BME280;40873;47.522;19.106;2023-09-12T01:48:46;100119.84;;;17.93;100.00
54978;BME280;40873;47.522;19.106;2023-09-12T01:51:18;100121.84;;;17.91;100.00
54978;BME280;40873;47.522;19.106;2023-09-12T01:53:47;100116.81;;;17.88;100.00
54978;BME280;40873;47.522;19.106;2023-09-12T01:56:14;100125.91;;;17.85;100.00
54978;BME280;40873;47.522;19.106;2023-09-12T01:58:44;100120.03;;;17.82;100.00
54978;BME280;40873;47.522;19.106;2023-09-12T02:01:11;100121.88;;;17.81;100.00
54978;BME280;40873;47.522;19.106;2023-09-12T02:03:38;100122.97;;;17.78;100.00
54978;BME280;40873;47.522;19.106;2023-09-12T02:06:05;100121.47;;;17.76;100.00
54978;BME280;40873;47.522;19.106;2023-09-12T02:08:33;100124.41;;;17.73;100.00
54978;BME280;40873;47.522;19.106;2023-09-12T02:10:59;100123.72;;;17.71;100.00
54978;BME280;40873;47.522;19.106;2023-09-12T02:13:26;100128.75;;;17.64;100.00
54978;BME280;40873;47.522;19.106;2023-09-12T02:16:00;100129.59;;;17.65;100.00
54978;BME280;40873;47.522;19.106;2023-09-12T02:18:27;100131.25;;;17.66;100.00
54978;BME280;40873;47.522;19.106;2023-09-12T02:20:54;100139.72;;;17.61;100.00
54978;BME280;40873;47.522;19.106;2023-09-12T02:23:21;100136.63;;;17.56;100.00
54978;BME280;40873;47.522;19.106;2023-09-12T02:25:49;100132.53;;;17.52;100.00
54978;BME280;40873;47.522;19.106;2023-09-12T02:28:16;100127.81;;;17.46;100.00
54978;BME280;40873;47.522;19.106;2023-09-12T02:30:43;100139.16;;;17.48;100.00
54978;BME280;40873;47.522;19.106;2023-09-12T02:33:10;100132.03;;;17.39;100.00
54978;BME280;40873;47.522;19.106;2023-09-12T02:35:37;100127.66;;;17.38;100.00
54978;BME280;40873;47.522;19.106;2023-09-12T02:38:04;100127.22;;;17.42;100.00
54978;BME280;40873;47.522;19.106;2023-09-12T02:40:31;100123.56;;;17.43;100.00
54978;BME280;40873;47.522;19.106;2023-09-12T02:42:58;100121.75;;;17.44;100.00
54978;BME280;40873;47.522;19.106;2023-09-12T02:45:25;100135.34;;;17.50;100.00
54978;BME280;40873;47.522;19.106;2023-09-12T02:47:52;100131.16;;;17.48;100.00
54978;BME280;40873;47.522;19.106;2023-09-12T02:50:19;100130.06;;;17.41;100.00
54978;BME280;40873;47.522;19.106;2023-09-12T02:52:46;100130.31;;;17.38;100.00
54978;BME280;40873;47.522;19.106;2023-09-12T02:55:13;100134.81;;;17.37;100.00
54978;BME280;40873;47.522;19.106;2023-09-12T02:57:40;100134.81;;;17.37;100.00
54978;BME280;40873;47.522;19.106;2023-09-12T03:00:07;100127.78;;;17.36;100.00
54978;BME280;40873;47.522;19.106;2023-09-12T03:02:36;100122.75;;;17.33;100.00
54978;BME280;40873;47.522;19.106;2023-09-12T03:05:03;100127.09;;;17.34;100.00
54978;BME280;40873;47.522;19.106;2023-09-12T03:07:30;100133.56;;;17.32;100.00
54978;BME280;40873;47.522;19.106;2023-09-12T03:09:57;100140.16;;;17.27;100.00
54978;BME280;40873;47.522;19.106;2023-09-12T03:12:24;100133.16;;;17.26;100.00
54978;BME280;40873;47.522;19.106;2023-09-12T03:14:51;100126.69;;;17.29;100.00
54978;BME280;40873;47.522;19.106;2023-09-12T03:17:18;100133.84;;;17.29;100.00
54978;BME280;40873;47.522;19.106;2023-09-12T03:19:45;100121.91;;;17.23;100.00
54978;BME280;40873;47.522;19.106;2023-09-12T03:22:12;100134.97;;;17.26;100.00
54978;BME280;40873;47.522;19.106;2023-09-12T03:24:39;100138.63;;;17.25;100.00
54978;BME280;40873;47.522;19.106;2023-09-12T03:27:07;100139.47;;;17.25;100.00
54978;BME280;40873;47.522;19.106;2023-09-12T03:29:34;100131.47;;;17.25;100.00
54978;BME280;40873;47.522;19.106;2023-09-12T03:32:01;100126.25;;;17.24;100.00
54978;BME280;40873;47.522;19.106;2023-09-12T03:34:29;100139.47;;;17.25;100.00
54978;BME280;40873;47.522;19.106;2023-09-12T03:36:56;100134.41;;;17.22;100.00
54978;BME280;40873;47.522;19.106;2023-09-12T03:39:23;100135.69;;;17.18;100.00
54978;BME280;40873;47.522;19.106;2023-09-12T03:41:50;100140.44;;;17.15;100.00
54978;BME280;40873;47.522;19.106;2023-09-12T03:44:17;100145.06;;;17.13;100.00
54978;BME280;40873;47.522;19.106;2023-09-12T03:46:44;100140.97;;;17.09;100.00
54978;BME280;40873;47.522;19.106;2023-09-12T03:49:11;100141.28;;;17.06;100.00
54978;BME280;40873;47.522;19.106;2023-09-12T03:51:38;100147.16;;;16.99;100.00
54978;BME280;40873;47.522;19.106;2023-09-12T03:54:05;100144.50;;;16.99;100.00
54978;BME280;40873;47.522;19.106;2023-09-12T03:56:32;100150.66;;;17.00;100.00
54978;BME280;40873;47.522;19.106;2023-09-12T03:58:59;100143.06;;;16.95;100.00
54978;BME280;40873;47.522;19.106;2023-09-12T04:01:27;100138.72;;;16.94;100.00
54978;BME280;40873;47.522;19.106;2023-09-12T04:03:55;100146.47;;;16.97;100.00
54978;BME280;40873;47.522;19.106;2023-09-12T04:06:22;100141.53;;;16.93;100.00
54978;BME280;40873;47.522;19.106;2023-09-12T04:08:49;100148.94;;;16.89;100.00
54978;BME280;40873;47.522;19.106;2023-09-12T04:11:16;100146.16;;;16.91;100.00
54978;BME280;40873;47.522;19.106;2023-09-12T04:13:48;100144.06;;;16.94;100.00
54978;BME280;40873;47.522;19.106;2023-09-12T04:16:15;100155.25;;;16.79;100.00
54978;BME280;40873;47.522;19.106;2023-09-12T04:18:44;100151.06;;;16.76;100.00
54978;BME280;40873;47.522;19.106;2023-09-12T04:21:11;100150.19;;;16.76;100.00
54978;BME280;40873;47.522;19.106;2023-09-12T04:23:38;100143.75;;;16.78;100.00
54978;BME280;40873;47.522;19.106;2023-09-12T04:26:05;100154.56;;;16.77;100.00
54978;BME280;40873;47.522;19.106;2023-09-12T04:28:32;100156.50;;;16.75;100.00
54978;BME280;40873;47.522;19.106;2023-09-12T04:31:03;100161.13;;;16.82;100.00
54978;BME280;40873;47.522;19.106;2023-09-12T04:33:30;100154.13;;;16.81;100.00
54978;BME280;40873;47.522;19.106;2023-09-12T04:36:00;100163.94;;;16.81;100.00
54978;BME280;40873;47.522;19.106;2023-09-12T04:38:27;100163.38;;;16.77;100.00
54978;BME280;40873;47.522;19.106;2023-09-12T04:40:57;100159.31;;;16.83;100.00
54978;BME280;40873;47.522;19.106;2023-09-12T04:43:29;100152.03;;;16.85;100.00
54978;BME280;40873;47.522;19.106;2023-09-12T04:45:56;100156.38;;;16.86;100.00
54978;BME280;40873;47.522;19.106;2023-09-12T04:48:24;100166.22;;;16.85;100.00
54978;BME280;40873;47.522;19.106;2023-09-12T04:50:51;100171.00;;;16.91;100.00
54978;BME280;40873;47.522;19.106;2023-09-12T04:53:18;100179.13;;;16.90;100.00
54978;BME280;40873;47.522;19.106;2023-09-12T04:55:45;100164.28;;;16.97;100.00
54978;BME280;40873;47.522;19.106;2023-09-12T04:58:12;100167.34;;;17.02;100.00
54978;BME280;40873;47.522;19.106;2023-09-12T05:00:39;100168.78;;;17.06;100.00
54978;BME280;40873;47.522;19.106;2023-09-12T05:03:07;100179.56;;;17.05;100.00
54978;BME280;40873;47.522;19.106;2023-09-12T05:05:35;100176.34;;;17.11;100.00
54978;BME280;40873;47.522;19.106;2023-09-12T05:08:05;100171.16;;;17.19;100.00
54978;BME280;40873;47.522;19.106;2023-09-12T05:10:32;100185.19;;;17.21;100.00
54978;BME280;40873;47.522;19.106;2023-09-12T05:12:59;100184.63;;;17.27;100.00
54978;BME280;40873;47.522;19.106;2023-09-12T05:15:26;100184.09;;;17.33;100.00
54978;BME280;40873;47.522;19.106;2023-09-12T05:17:54;100179.72;;;17.42;100.00
54978;BME280;40873;47.522;19.106;2023-09-12T05:20:21;100176.50;;;17.48;100.00
54978;BME280;40873;47.522;19.106;2023-09-12T05:22:48;100176.78;;;17.54;100.00
54978;BME280;40873;47.522;19.106;2023-09-12T05:25:15;100179.44;;;17.64;100.00
54978;BME280;40873;47.522;19.106;2023-09-12T05:27:45;100176.50;;;17.67;100.00
54978;BME280;40873;47.522;19.106;2023-09-12T05:30:14;100176.81;;;17.74;100.00
54978;BME280;40873;47.522;19.106;2023-09-12T05:32:41;100177.75;;;17.83;100.00
54978;BME280;40873;47.522;19.106;2023-09-12T05:35:08;100182.38;;;17.90;100.00
54978;BME280;40873;47.522;19.106;2023-09-12T05:37:46;100182.66;;;17.97;100.00
54978;BME280;40873;47.522;19.106;2023-09-12T05:40:15;100187.69;;;18.00;100.00
54978;BME280;40873;47.522;19.106;2023-09-12T05:42:42;100194.84;;;18.09;100.00
54978;BME280;40873;47.522;19.106;2023-09-12T05:45:09;100194.28;;;18.15;100.00
54978;BME280;40873;47.522;19.106;2023-09-12T05:47:36;100187.91;;;18.26;100.00
54978;BME280;40873;47.522;19.106;2023-09-12T05:50:04;100190.41;;;18.37;100.00
54978;BME280;40873;47.522;19.106;2023-09-12T05:52:36;100190.50;;;18.45;100.00
54978;BME280;40873;47.522;19.106;2023-09-12T05:55:04;100194.28;;;18.52;100.00
54978;BME280;40873;47.522;19.106;2023-09-12T05:57:31;100199.88;;;18.59;100.00
54978;BME280;40873;47.522;19.106;2023-09-12T06:00:02;100199.28;;;18.65;100.00
54978;BME280;40873;47.522;19.106;2023-09-12T06:02:32;100197.41;;;18.75;100.00
54978;BME280;40873;47.522;19.106;2023-09-12T06:05:00;100198.50;;;18.82;100.00
54978;BME280;40873;47.522;19.106;2023-09-12T06:07:27;100208.59;;;18.88;100.00
54978;BME280;40873;47.522;19.106;2023-09-12T06:09:54;100203.19;;;18.98;100.00
54978;BME280;40873;47.522;19.106;2023-09-12T06:12:21;100212.00;;;19.08;100.00
54978;BME280;40873;47.522;19.106;2023-09-12T06:14:48;100196.72;;;19.18;100.00
54978;BME280;40873;47.522;19.106;2023-09-12T06:17:15;100205.22;;;19.32;100.00
54978;BME280;40873;47.522;19.106;2023-09-12T06:19:42;100203.94;;;19.36;100.00
54978;BME280;40873;47.522;19.106;2023-09-12T06:22:09;100212.03;;;19.44;100.00
54978;BME280;40873;47.522;19.106;2023-09-12T06:24:36;100213.94;;;19.52;100.00
54978;BME280;40873;47.522;19.106;2023-09-12T06:27:05;100207.47;;;19.54;100.00
54978;BME280;40873;47.522;19.106;2023-09-12T06:29:33;100215.59;;;19.62;100.00
54978;BME280;40873;47.522;19.106;2023-09-12T06:32:00;100213.25;;;19.67;100.00
54978;BME280;40873;47.522;19.106;2023-09-12T06:34:29;100204.78;;;19.72;100.00
54978;BME280;40873;47.522;19.106;2023-09-12T06:36:56;100206.22;;;19.84;100.00
54978;BME280;40873;47.522;19.106;2023-09-12T06:39:23;100209.78;;;19.93;100.00
54978;BME280;40873;47.522;19.106;2023-09-12T06:41:51;100207.66;;;19.96;100.00
54978;BME280;40873;47.522;19.106;2023-09-12T06:44:18;100212.53;;;20.01;100.00
54978;BME280;40873;47.522;19.106;2023-09-12T06:46:45;100215.22;;;20.01;100.00
54978;BME280;40873;47.522;19.106;2023-09-12T06:49:12;100203.72;;;20.09;100.00
54978;BME280;40873;47.522;19.106;2023-09-12T06:51:39;100208.97;;;20.18;100.00
54978;BME280;40873;47.522;19.106;2023-09-12T06:54:06;100204.34;;;20.29;100.00
54978;BME280;40873;47.522;19.106;2023-09-12T06:56:33;100205.09;;;20.39;100.00
54978;BME280;40873;47.522;19.106;2023-09-12T06:59:04;100216.38;;;20.50;100.00
54978;BME280;40873;47.522;19.106;2023-09-12T07:01:32;100209.06;;;20.61;100.00
54978;BME280;40873;47.522;19.106;2023-09-12T07:03:59;100211.41;;;20.64;100.00
54978;BME280;40873;47.522;19.106;2023-09-12T07:06:26;100218.19;;;20.76;100.00
54978;BME280;40873;47.522;19.106;2023-09-12T07:08:54;100218.75;;;20.88;100.00
54978;BME280;40873;47.522;19.106;2023-09-12T07:11:21;100221.09;;;20.99;100.00
54978;BME280;40873;47.522;19.106;2023-09-12T07:13:51;100217.78;;;21.05;100.00
54978;BME280;40873;47.522;19.106;2023-09-12T07:16:19;100229.72;;;21.19;100.00
54978;BME280;40873;47.522;19.106;2023-09-12T07:18:48;100219.56;;;21.30;96.90
54978;BME280;40873;47.522;19.106;2023-09-12T07:21:16;100222.59;;;21.44;97.55
54978;BME280;40873;47.522;19.106;2023-09-12T07:23:43;100224.63;;;21.58;100.00
54978;BME280;40873;47.522;19.106;2023-09-12T07:26:14;100229.81;;;21.68;99.34
54978;BME280;40873;47.522;19.106;2023-09-12T07:28:42;100227.16;;;21.84;100.00
54978;BME280;40873;47.522;19.106;2023-09-12T07:31:09;100230.16;;;21.97;95.35
54978;BME280;40873;47.522;19.106;2023-09-12T07:33:36;100232.69;;;22.15;96.48
54978;BME280;40873;47.522;19.106;2023-09-12T07:36:03;100229.47;;;22.36;91.85
54978;BME280;40873;47.522;19.106;2023-09-12T07:38:30;100226.22;;;22.57;89.56
54978;BME280;40873;47.522;19.106;2023-09-12T07:40:58;100231.19;;;22.76;92.77
54978;BME280;40873;47.522;19.106;2023-09-12T07:43:26;100224.91;;;22.92;89.93
54978;BME280;40873;47.522;19.106;2023-09-12T07:45:57;100226.16;;;23.12;91.95
54978;BME280;40873;47.522;19.106;2023-09-12T07:48:24;100225.34;;;23.35;87.48
54978;BME280;40873;47.522;19.106;2023-09-12T07:50:51;100221.88;;;23.49;86.97
54978;BME280;40873;47.522;19.106;2023-09-12T07:53:19;100222.81;;;23.64;85.23
54978;BME280;40873;47.522;19.106;2023-09-12T07:55:45;100221.03;;;23.79;82.54
54978;BME280;40873;47.522;19.106;2023-09-12T07:58:14;100222.47;;;24.05;80.83
54978;BME280;40873;47.522;19.106;2023-09-12T08:00:42;100223.34;;;24.20;80.85
54978;BME280;40873;47.522;19.106;2023-09-12T08:03:09;100220.13;;;24.40;82.07
54978;BME280;40873;47.522;19.106;2023-09-12T08:05:36;100216.16;;;24.50;78.12
54978;BME280;40873;47.522;19.106;2023-09-12T08:08:03;100219.84;;;24.64;78.96
54978;BME280;40873;47.522;19.106;2023-09-12T08:10:30;100210.28;;;24.76;77.56
54978;BME280;40873;47.522;19.106;2023-09-12T08:12:57;100217.16;;;24.79;78.96
54978;BME280;40873;47.522;19.106;2023-09-12T08:15:24;100216.75;;;24.97;77.46
54978;BME280;40873;47.522;19.106;2023-09-12T08:17:54;100212.19;;;25.12;74.85
54978;BME280;40873;47.522;19.106;2023-09-12T08:20:21;100215.47;;;25.29;74.83
54978;BME280;40873;47.522;19.106;2023-09-12T08:22:48;100221.03;;;25.42;76.31
54978;BME280;40873;47.522;19.106;2023-09-12T08:25:15;100212.50;;;25.60;73.00
54978;BME280;40873;47.522;19.106;2023-09-12T08:27:43;100216.59;;;25.77;73.69
54978;BME280;40873;47.522;19.106;2023-09-12T08:30:11;100219.03;;;25.93;73.50
54978;BME280;40873;47.522;19.106;2023-09-12T08:32:40;100215.91;;;26.18;70.74
54978;BME280;40873;47.522;19.106;2023-09-12T08:35:11;100211.00;;;26.35;68.70
54978;BME280;40873;47.522;19.106;2023-09-12T08:37:40;100212.19;;;26.54;67.97
54978;BME280;40873;47.522;19.106;2023-09-12T08:40:09;100213.66;;;26.49;65.60
54978;BME280;40873;47.522;19.106;2023-09-12T08:42:41;100211.88;;;26.76;64.26
54978;BME280;40873;47.522;19.106;2023-09-12T08:45:16;100206.75;;;26.88;67.64
54978;BME280;40873;47.522;19.106;2023-09-12T08:47:49;100207.31;;;26.77;61.81
54978;BME280;40873;47.522;19.106;2023-09-12T08:50:17;100209.97;;;27.12;60.83
54978;BME280;40873;47.522;19.106;2023-09-12T08:52:45;100208.59;;;27.36;60.48
54978;BME280;40873;47.522;19.106;2023-09-12T08:55:31;100211.34;;;27.55;58.33
54978;BME280;40873;47.522;19.106;2023-09-12T08:58:04;100201.38;;;27.69;57.92
54978;BME280;40873;47.522;19.106;2023-09-12T09:00:31;100204.28;;;27.94;56.48
54978;BME280;40873;47.522;19.106;2023-09-12T09:02:59;100202.19;;;28.16;59.61
54978;BME280;40873;47.522;19.106;2023-09-12T09:05:27;100200.28;;;28.36;56.19
54978;BME280;40873;47.522;19.106;2023-09-12T09:07:57;100204.47;;;28.52;52.46
54978;BME280;40873;47.522;19.106;2023-09-12T09:10:24;100204.47;;;28.46;53.34
54978;BME280;40873;47.522;19.106;2023-09-12T09:13:13;100204.25;;;28.47;52.85
54978;BME280;40873;47.522;19.106;2023-09-12T09:15:40;100200.19;;;28.76;54.73
54978;BME280;40873;47.522;19.106;2023-09-12T09:18:11;100193.66;;;28.97;53.67
54978;BME280;40873;47.522;19.106;2023-09-12T09:20:40;100205.44;;;29.23;51.47
54978;BME280;40873;47.522;19.106;2023-09-12T09:23:09;100193.25;;;29.32;52.13
54978;BME280;40873;47.522;19.106;2023-09-12T09:25:42;100201.03;;;29.28;49.55
54978;BME280;40873;47.522;19.106;2023-09-12T09:28:17;100197.16;;;29.04;49.61
54978;BME280;40873;47.522;19.106;2023-09-12T09:30:49;100194.16;;;29.19;48.96
54978;BME280;40873;47.522;19.106;2023-09-12T09:33:18;100191.72;;;29.42;48.79
54978;BME280;40873;47.522;19.106;2023-09-12T09:35:47;100194.25;;;29.69;49.90
54978;BME280;40873;47.522;19.106;2023-09-12T09:38:18;100197.25;;;29.61;46.56
54978;BME280;40873;47.522;19.106;2023-09-12T09:40:47;100196.38;;;29.92;47.23
54978;BME280;40873;47.522;19.106;2023-09-12T09:43:20;100192.91;;;30.03;47.63
54978;BME280;40873;47.522;19.106;2023-09-12T09:45:48;100200.09;;;30.22;45.77
54978;BME280;40873;47.522;19.106;2023-09-12T09:48:22;100200.88;;;30.29;45.35
54978;BME280;40873;47.522;19.106;2023-09-12T09:50:50;100192.25;;;30.33;44.97
54978;BME280;40873;47.522;19.106;2023-09-12T09:53:28;100199.56;;;30.14;44.35
54978;BME280;40873;47.522;19.106;2023-09-12T09:56:09;100192.56;;;30.43;45.31
54978;BME280;40873;47.522;19.106;2023-09-12T09:59:06;100188.78;;;30.80;43.79
54978;BME280;40873;47.522;19.106;2023-09-12T10:01:34;100184.69;;;30.90;43.17
54978;BME280;40873;47.522;19.106;2023-09-12T10:04:03;100181.56;;;31.23;42.80
54978;BME280;40873;47.522;19.106;2023-09-12T10:06:32;100180.81;;;31.57;42.45
54978;BME280;40873;47.522;19.106;2023-09-12T10:09:06;100175.13;;;31.59;38.50
54978;BME280;40873;47.522;19.106;2023-09-12T10:11:35;100176.22;;;31.28;38.28
54978;BME280;40873;47.522;19.106;2023-09-12T10:14:04;100176.00;;;31.29;37.46
54978;BME280;40873;47.522;19.106;2023-09-12T10:16:34;100181.66;;;30.98;38.81
54978;BME280;40873;47.522;19.106;2023-09-12T10:21:50;100172.72;;;31.21;38.73
54978;BME280;40873;47.522;19.106;2023-09-12T10:24:19;100171.88;;;31.38;38.13
54978;BME280;40873;47.522;19.106;2023-09-12T10:26:50;100169.91;;;31.69;37.63
54978;BME280;40873;47.522;19.106;2023-09-12T10:29:17;100174.28;;;31.47;36.44
54978;BME280;40873;47.522;19.106;2023-09-12T10:31:45;100168.59;;;31.60;36.71
54978;BME280;40873;47.522;19.106;2023-09-12T10:34:14;100165.28;;;31.70;35.85
54978;BME280;40873;47.522;19.106;2023-09-12T10:36:45;100164.94;;;31.66;35.77
54978;BME280;40873;47.522;19.106;2023-09-12T10:39:12;100158.47;;;31.90;35.60
54978;BME280;40873;47.522;19.106;2023-09-12T10:41:41;100165.59;;;32.15;35.33
54978;BME280;40873;47.522;19.106;2023-09-12T10:44:15;100160.94;;;32.04;34.69
54978;BME280;40873;47.522;19.106;2023-09-12T10:46:43;100160.59;;;32.00;34.96
54978;BME280;40873;47.522;19.106;2023-09-12T10:49:12;100161.06;;;31.97;35.28
54978;BME280;40873;47.522;19.106;2023-09-12T10:51:41;100151.44;;;32.18;36.34
54978;BME280;40873;47.522;19.106;2023-09-12T10:54:09;100151.56;;;32.11;35.83
54978;BME280;40873;47.522;19.106;2023-09-12T10:56:39;100150.38;;;32.42;35.57
54978;BME280;40873;47.522;19.106;2023-09-12T11:01:35;100161.06;;;32.84;34.74
54978;BME280;40873;47.522;19.106;2023-09-12T11:06:50;100149.91;;;32.22;34.56
54978;BME280;40873;47.522;19.106;2023-09-12T11:09:19;100157.94;;;32.64;34.46
54978;BME280;40873;47.522;19.106;2023-09-12T11:11:49;100151.84;;;33.02;35.16
54978;BME280;40873;47.522;19.106;2023-09-12T11:14:21;100148.13;;;32.91;33.94
54978;BME280;40873;47.522;19.106;2023-09-12T11:19:47;100145.16;;;32.81;32.93
54978;BME280;40873;47.522;19.106;2023-09-12T11:22:28;100145.84;;;32.88;34.01
54978;BME280;40873;47.522;19.106;2023-09-12T11:25:04;100139.06;;;32.62;33.82
54978;BME280;40873;47.522;19.106;2023-09-12T11:27:45;100140.56;;;32.70;33.42
54978;BME280;40873;47.522;19.106;2023-09-12T11:30:13;100145.50;;;32.85;33.03
54978;BME280;40873;47.522;19.106;2023-09-12T11:32:44;100131.75;;;33.08;33.26
54978;BME280;40873;47.522;19.106;2023-09-12T11:35:11;100129.41;;;32.71;32.99
54978;BME280;40873;47.522;19.106;2023-09-12T11:37:38;100121.75;;;33.14;33.02
54978;BME280;40873;47.522;19.106;2023-09-12T11:42:41;100121.16;;;33.40;31.59
54978;BME280;40873;47.522;19.106;2023-09-12T11:45:12;100122.09;;;33.34;31.72
54978;BME280;40873;47.522;19.106;2023-09-12T11:47:43;100121.22;;;33.62;31.88
54978;BME280;40873;47.522;19.106;2023-09-12T11:50:29;100119.22;;;33.58;31.70
54978;BME280;40873;47.522;19.106;2023-09-12T11:53:05;100113.25;;;33.77;30.63
54978;BME280;40873;47.522;19.106;2023-09-12T11:55:43;100121.88;;;33.69;31.04
54978;BME280;40873;47.522;19.106;2023-09-12T11:58:11;100109.78;;;33.48;30.36
54978;BME280;40873;47.522;19.106;2023-09-12T12:00:50;100106.47;;;33.46;30.87
54978;BME280;40873;47.522;19.106;2023-09-12T12:03:20;100109.28;;;33.51;30.82
54978;BME280;40873;47.522;19.106;2023-09-12T12:05:53;100113.41;;;34.04;30.67
54978;BME280;40873;47.522;19.106;2023-09-12T12:08:21;100099.22;;;34.73;30.32
54978;BME280;40873;47.522;19.106;2023-09-12T12:10:58;100103.00;;;35.21;28.46
54978;BME280;40873;47.522;19.106;2023-09-12T12:13:26;100101.19;;;34.56;27.84
54978;BME280;40873;47.522;19.106;2023-09-12T12:15:55;100091.69;;;35.82;27.42
54978;BME280;40873;47.522;19.106;2023-09-12T12:18:23;100097.00;;;35.93;27.07
54978;BME280;40873;47.522;19.106;2023-09-12T12:20:50;100098.75;;;36.10;26.16
54978;BME280;40873;47.522;19.106;2023-09-12T12:23:17;100092.19;;;36.99;25.66
54978;BME280;40873;47.522;19.106;2023-09-12T12:25:44;100097.75;;;37.50;25.17
54978;BME280;40873;47.522;19.106;2023-09-12T12:28:11;100097.03;;;38.24;24.41
54978;BME280;40873;47.522;19.106;2023-09-12T12:30:38;100091.56;;;38.09;24.68
54978;BME280;40873;47.522;19.106;2023-09-12T12:33:09;100094.31;;;36.66;24.99
54978;BME280;40873;47.522;19.106;2023-09-12T12:36:03;100079.72;;;38.78;23.50
54978;BME280;40873;47.522;19.106;2023-09-12T12:38:36;100072.28;;;39.47;22.53
54978;BME280;40873;47.522;19.106;2023-09-12T12:41:10;100075.22;;;40.33;22.10
54978;BME280;40873;47.522;19.106;2023-09-12T12:43:41;100074.25;;;39.76;21.75
54978;BME280;40873;47.522;19.106;2023-09-12T12:46:11;100065.59;;;39.82;21.66
54978;BME280;40873;47.522;19.106;2023-09-12T12:48:43;100060.84;;;40.36;22.18
54978;BME280;40873;47.522;19.106;2023-09-12T12:51:15;100066.47;;;39.48;21.88
54978;BME280;40873;47.522;19.106;2023-09-12T12:53:45;100062.13;;;40.19;21.43
54978;BME280;40873;47.522;19.106;2023-09-12T12:56:23;100067.06;;;40.65;20.86
54978;BME280;40873;47.522;19.106;2023-09-12T12:58:52;100069.75;;;40.51;21.11
54978;BME280;40873;47.522;19.106;2023-09-12T13:01:21;100065.28;;;40.74;20.63